sensor_id;sensor_type;location;lat;lon;timestamp;pressure;altitude;pressure_sealevel;temperature
69420;BMP280;56612;52.030;113.524;2022-10-01T00:01:23;92676.78;;;8.08
69420;BMP280;56612;52.030;113.524;2022-10-01T00:04:27;92689.78;;;7.90
69420;BMP280;56612;52.030;113.524;2022-10-01T00:07:42;92671.88;;;7.56
69420;BMP280;56612;52.030;113.524;2022-10-01T00:10:45;92677.66;;;7.13
69420;BMP280;56612;52.030;113.524;2022-10-01T00:13:51;92689.94;;;6.98
69420;BMP280;56612;52.030;113.524;2022-10-01T00:16:55;92693.00;;;6.86
69420;BMP280;56612;52.030;113.524;2022-10-01T00:20:00;92704.16;;;6.79
69420;BMP280;56612;52.030;113.524;2022-10-01T00:23:15;92694.16;;;6.77
69420;BMP280;56612;52.030;113.524;2022-10-01T00:26:21;92693.16;;;6.92
69420;BMP280;56612;52.030;113.524;2022-10-01T00:29:26;92688.94;;;7.13
69420;BMP280;56612;52.030;113.524;2022-10-01T00:32:30;92693.94;;;7.29
69420;BMP280;56612;52.030;113.524;2022-10-01T00:35:34;92692.72;;;7.36
69420;BMP280;56612;52.030;113.524;2022-10-01T00:38:40;92696.69;;;7.33
69420;BMP280;56612;52.030;113.524;2022-10-01T00:41:44;92707.50;;;7.43
69420;BMP280;56612;52.030;113.524;2022-10-01T00:44:49;92706.22;;;7.46
69420;BMP280;56612;52.030;113.524;2022-10-01T00:47:54;92722.84;;;7.47
69420;BMP280;56612;52.030;113.524;2022-10-01T00:51:00;92747.91;;;7.38
69420;BMP280;56612;52.030;113.524;2022-10-01T00:54:13;92747.03;;;7.27
69420;BMP280;56612;52.030;113.524;2022-10-01T00:57:20;92758.88;;;7.22
69420;BMP280;56612;52.030;113.524;2022-10-01T01:00:26;92766.19;;;7.21
69420;BMP280;56612;52.030;113.524;2022-10-01T01:03:30;92769.75;;;7.34
69420;BMP280;56612;52.030;113.524;2022-10-01T01:06:33;92773.19;;;7.39
69420;BMP280;56612;52.030;113.524;2022-10-01T01:09:43;92774.69;;;7.48
69420;BMP280;56612;52.030;113.524;2022-10-01T01:16:30;92773.13;;;7.67
69420;BMP280;56612;52.030;113.524;2022-10-01T01:30:03;92778.19;;;7.88
69420;BMP280;56612;52.030;113.524;2022-10-01T01:33:14;92778.84;;;7.87
69420;BMP280;56612;52.030;113.524;2022-10-01T01:36:26;92786.38;;;7.99
69420;BMP280;56612;52.030;113.524;2022-10-01T01:39:32;92781.31;;;8.13
69420;BMP280;56612;52.030;113.524;2022-10-01T01:42:40;92780.69;;;8.14
69420;BMP280;56612;52.030;113.524;2022-10-01T01:45:47;92792.59;;;8.11
69420;BMP280;56612;52.030;113.524;2022-10-01T01:48:52;92799.88;;;8.09
69420;BMP280;56612;52.030;113.524;2022-10-01T01:52:07;92799.44;;;8.20
69420;BMP280;56612;52.030;113.524;2022-10-01T01:55:15;92796.50;;;8.42
69420;BMP280;56612;52.030;113.524;2022-10-01T01:58:19;92802.16;;;8.63
69420;BMP280;56612;52.030;113.524;2022-10-01T02:01:34;92811.13;;;8.81
69420;BMP280;56612;52.030;113.524;2022-10-01T02:04:44;92818.66;;;8.95
69420;BMP280;56612;52.030;113.524;2022-10-01T02:11:24;92821.06;;;8.77
69420;BMP280;56612;52.030;113.524;2022-10-01T02:14:46;92823.84;;;8.85
69420;BMP280;56612;52.030;113.524;2022-10-01T02:18:00;92827.56;;;8.68
69420;BMP280;56612;52.030;113.524;2022-10-01T02:24:21;92844.97;;;8.73
69420;BMP280;56612;52.030;113.524;2022-10-01T02:27:34;92844.16;;;8.64
69420;BMP280;56612;52.030;113.524;2022-10-01T02:30:39;92854.75;;;8.62
69420;BMP280;56612;52.030;113.524;2022-10-01T02:33:46;92859.97;;;8.56
69420;BMP280;56612;52.030;113.524;2022-10-01T02:36:50;92864.75;;;8.62
69420;BMP280;56612;52.030;113.524;2022-10-01T02:39:59;92868.94;;;8.73
69420;BMP280;56612;52.030;113.524;2022-10-01T02:43:09;92862.75;;;8.62
69420;BMP280;56612;52.030;113.524;2022-10-01T02:46:21;92867.44;;;8.64
69420;BMP280;56612;52.030;113.524;2022-10-01T02:49:30;92870.84;;;8.68
69420;BMP280;56612;52.030;113.524;2022-10-01T02:52:50;92868.19;;;8.68
69420;BMP280;56612;52.030;113.524;2022-10-01T02:55:55;92878.38;;;8.80
69420;BMP280;56612;52.030;113.524;2022-10-01T02:59:00;92879.84;;;8.87
69420;BMP280;56612;52.030;113.524;2022-10-01T03:02:03;92885.06;;;8.81
69420;BMP280;56612;52.030;113.524;2022-10-01T03:05:08;92891.41;;;9.02
69420;BMP280;56612;52.030;113.524;2022-10-01T03:08:11;92889.19;;;9.28
69420;BMP280;56612;52.030;113.524;2022-10-01T03:11:16;92887.53;;;9.53
69420;BMP280;56612;52.030;113.524;2022-10-01T03:14:19;92879.09;;;9.69
69420;BMP280;56612;52.030;113.524;2022-10-01T03:17:23;92876.56;;;9.77
69420;BMP280;56612;52.030;113.524;2022-10-01T03:20:26;92865.94;;;9.81
69420;BMP280;56612;52.030;113.524;2022-10-01T03:23:30;92864.97;;;10.10
69420;BMP280;56612;52.030;113.524;2022-10-01T03:26:34;92855.09;;;10.23
69420;BMP280;56612;52.030;113.524;2022-10-01T03:29:38;92863.16;;;10.29
69420;BMP280;56612;52.030;113.524;2022-10-01T03:32:42;92855.91;;;10.36
69420;BMP280;56612;52.030;113.524;2022-10-01T03:35:45;92861.53;;;10.62
69420;BMP280;56612;52.030;113.524;2022-10-01T03:38:48;92849.09;;;10.91
69420;BMP280;56612;52.030;113.524;2022-10-01T03:41:51;92858.09;;;10.51
69420;BMP280;56612;52.030;113.524;2022-10-01T03:44:56;92873.38;;;10.47
69420;BMP280;56612;52.030;113.524;2022-10-01T03:47:59;92871.31;;;11.08
69420;BMP280;56612;52.030;113.524;2022-10-01T03:51:04;92878.16;;;11.33
69420;BMP280;56612;52.030;113.524;2022-10-01T03:54:08;92882.81;;;11.29
69420;BMP280;56612;52.030;113.524;2022-10-01T03:57:12;92890.97;;;11.45
69420;BMP280;56612;52.030;113.524;2022-10-01T04:00:16;92903.50;;;12.33
69420;BMP280;56612;52.030;113.524;2022-10-01T04:03:20;92892.00;;;12.10
69420;BMP280;56612;52.030;113.524;2022-10-01T04:06:23;92902.44;;;11.64
69420;BMP280;56612;52.030;113.524;2022-10-01T04:09:27;92892.41;;;11.58
69420;BMP280;56612;52.030;113.524;2022-10-01T04:12:30;92891.44;;;11.19
69420;BMP280;56612;52.030;113.524;2022-10-01T04:15:34;92897.97;;;11.00
69420;BMP280;56612;52.030;113.524;2022-10-01T04:18:38;92901.91;;;10.92
69420;BMP280;56612;52.030;113.524;2022-10-01T04:21:41;92894.00;;;11.05
69420;BMP280;56612;52.030;113.524;2022-10-01T04:24:45;92903.69;;;10.70
69420;BMP280;56612;52.030;113.524;2022-10-01T04:28:00;92895.53;;;10.57
69420;BMP280;56612;52.030;113.524;2022-10-01T04:31:03;92894.06;;;10.42
69420;BMP280;56612;52.030;113.524;2022-10-01T04:34:25;92911.88;;;10.25
69420;BMP280;56612;52.030;113.524;2022-10-01T04:37:58;92906.56;;;10.30
69420;BMP280;56612;52.030;113.524;2022-10-01T04:41:06;92907.88;;;10.27
69420;BMP280;56612;52.030;113.524;2022-10-01T04:44:09;92920.59;;;10.28
69420;BMP280;56612;52.030;113.524;2022-10-01T04:47:13;92936.44;;;10.16
69420;BMP280;56612;52.030;113.524;2022-10-01T04:50:18;92933.25;;;10.25
69420;BMP280;56612;52.030;113.524;2022-10-01T04:53:23;92937.47;;;10.43
69420;BMP280;56612;52.030;113.524;2022-10-01T04:56:26;92947.63;;;10.56
69420;BMP280;56612;52.030;113.524;2022-10-01T04:59:30;92950.19;;;10.46
69420;BMP280;56612;52.030;113.524;2022-10-01T05:02:34;92955.66;;;10.56
69420;BMP280;56612;52.030;113.524;2022-10-01T05:05:37;92948.06;;;10.39
69420;BMP280;56612;52.030;113.524;2022-10-01T05:08:40;92961.00;;;10.58
69420;BMP280;56612;52.030;113.524;2022-10-01T05:11:44;92957.78;;;10.70
69420;BMP280;56612;52.030;113.524;2022-10-01T05:14:47;92957.53;;;11.06
69420;BMP280;56612;52.030;113.524;2022-10-01T05:17:50;92962.28;;;11.14
69420;BMP280;56612;52.030;113.524;2022-10-01T05:20:55;92952.19;;;11.10
69420;BMP280;56612;52.030;113.524;2022-10-01T05:23:58;92962.00;;;10.85
69420;BMP280;56612;52.030;113.524;2022-10-01T05:27:02;92963.44;;;10.99
69420;BMP280;56612;52.030;113.524;2022-10-01T05:30:08;92972.31;;;11.17
69420;BMP280;56612;52.030;113.524;2022-10-01T05:33:12;92978.22;;;11.06
69420;BMP280;56612;52.030;113.524;2022-10-01T05:36:15;92974.34;;;11.17
69420;BMP280;56612;52.030;113.524;2022-10-01T05:39:18;92976.31;;;11.14
69420;BMP280;56612;52.030;113.524;2022-10-01T05:42:22;92971.66;;;11.15
69420;BMP280;56612;52.030;113.524;2022-10-01T05:45:30;92970.31;;;11.18
69420;BMP280;56612;52.030;113.524;2022-10-01T05:48:34;92980.88;;;11.04
69420;BMP280;56612;52.030;113.524;2022-10-01T05:51:38;92977.41;;;10.91
69420;BMP280;56612;52.030;113.524;2022-10-01T05:54:42;92980.50;;;10.67
69420;BMP280;56612;52.030;113.524;2022-10-01T05:57:59;92985.72;;;10.57
69420;BMP280;56612;52.030;113.524;2022-10-01T06:01:03;92981.56;;;10.44
69420;BMP280;56612;52.030;113.524;2022-10-01T06:04:08;92989.09;;;10.62
69420;BMP280;56612;52.030;113.524;2022-10-01T06:07:13;92995.88;;;10.69
69420;BMP280;56612;52.030;113.524;2022-10-01T06:10:16;92993.44;;;10.37
69420;BMP280;56612;52.030;113.524;2022-10-01T06:13:20;93013.31;;;10.74
69420;BMP280;56612;52.030;113.524;2022-10-01T06:16:24;92997.78;;;10.62
69420;BMP280;56612;52.030;113.524;2022-10-01T06:19:28;93003.06;;;10.56
69420;BMP280;56612;52.030;113.524;2022-10-01T06:22:31;93020.00;;;10.22
69420;BMP280;56612;52.030;113.524;2022-10-01T06:25:35;93022.28;;;9.98
69420;BMP280;56612;52.030;113.524;2022-10-01T06:28:40;93045.09;;;10.05
69420;BMP280;56612;52.030;113.524;2022-10-01T06:31:44;93034.28;;;9.97
69420;BMP280;56612;52.030;113.524;2022-10-01T06:34:48;93042.78;;;9.83
69420;BMP280;56612;52.030;113.524;2022-10-01T06:37:52;93041.03;;;9.58
69420;BMP280;56612;52.030;113.524;2022-10-01T06:40:58;93043.41;;;9.82
69420;BMP280;56612;52.030;113.524;2022-10-01T06:44:02;93043.88;;;9.70
69420;BMP280;56612;52.030;113.524;2022-10-01T06:47:06;93058.75;;;9.43
69420;BMP280;56612;52.030;113.524;2022-10-01T06:50:10;93063.34;;;9.05
69420;BMP280;56612;52.030;113.524;2022-10-01T06:53:15;93073.09;;;9.26
69420;BMP280;56612;52.030;113.524;2022-10-01T06:56:19;93071.81;;;9.27
69420;BMP280;56612;52.030;113.524;2022-10-01T06:59:23;93075.03;;;9.23
69420;BMP280;56612;52.030;113.524;2022-10-01T07:02:27;93068.56;;;9.33
69420;BMP280;56612;52.030;113.524;2022-10-01T07:05:32;93074.06;;;9.43
69420;BMP280;56612;52.030;113.524;2022-10-01T07:08:36;93071.69;;;9.21
69420;BMP280;56612;52.030;113.524;2022-10-01T07:11:40;93079.69;;;9.23
69420;BMP280;56612;52.030;113.524;2022-10-01T07:14:45;93065.88;;;8.97
69420;BMP280;56612;52.030;113.524;2022-10-01T07:17:49;93072.06;;;8.73
69420;BMP280;56612;52.030;113.524;2022-10-01T07:20:55;93080.47;;;8.32
69420;BMP280;56612;52.030;113.524;2022-10-01T07:23:58;93084.44;;;8.31
69420;BMP280;56612;52.030;113.524;2022-10-01T07:27:02;93087.78;;;8.31
69420;BMP280;56612;52.030;113.524;2022-10-01T07:30:08;93109.56;;;8.23
69420;BMP280;56612;52.030;113.524;2022-10-01T07:33:16;93098.13;;;8.17
69420;BMP280;56612;52.030;113.524;2022-10-01T07:36:19;93095.59;;;8.23
69420;BMP280;56612;52.030;113.524;2022-10-01T07:39:23;93090.94;;;8.23
69420;BMP280;56612;52.030;113.524;2022-10-01T07:42:27;93100.28;;;8.24
69420;BMP280;56612;52.030;113.524;2022-10-01T07:45:31;93095.19;;;8.35
69420;BMP280;56612;52.030;113.524;2022-10-01T07:48:34;93093.94;;;8.38
69420;BMP280;56612;52.030;113.524;2022-10-01T07:51:37;93087.66;;;8.25
69420;BMP280;56612;52.030;113.524;2022-10-01T07:54:40;93101.72;;;8.30
69420;BMP280;56612;52.030;113.524;2022-10-01T07:57:49;93102.81;;;8.18
69420;BMP280;56612;52.030;113.524;2022-10-01T08:00:53;93101.97;;;7.84
69420;BMP280;56612;52.030;113.524;2022-10-01T08:04:01;93101.28;;;7.83
69420;BMP280;56612;52.030;113.524;2022-10-01T08:07:23;93105.13;;;8.04
69420;BMP280;56612;52.030;113.524;2022-10-01T08:10:27;93109.34;;;8.13
69420;BMP280;56612;52.030;113.524;2022-10-01T08:13:31;93116.41;;;8.03
69420;BMP280;56612;52.030;113.524;2022-10-01T08:16:34;93118.28;;;7.98
69420;BMP280;56612;52.030;113.524;2022-10-01T08:19:41;93121.00;;;8.00
69420;BMP280;56612;52.030;113.524;2022-10-01T08:22:44;93113.69;;;8.01
69420;BMP280;56612;52.030;113.524;2022-10-01T08:25:47;93121.75;;;7.77
69420;BMP280;56612;52.030;113.524;2022-10-01T08:28:51;93139.84;;;7.82
69420;BMP280;56612;52.030;113.524;2022-10-01T08:31:57;93142.25;;;7.72
69420;BMP280;56612;52.030;113.524;2022-10-01T08:35:01;93138.56;;;7.59
69420;BMP280;56612;52.030;113.524;2022-10-01T08:38:07;93141.66;;;7.76
69420;BMP280;56612;52.030;113.524;2022-10-01T08:41:39;93152.47;;;7.58
69420;BMP280;56612;52.030;113.524;2022-10-01T08:44:45;93160.28;;;7.50
69420;BMP280;56612;52.030;113.524;2022-10-01T08:48:12;93154.38;;;7.53
69420;BMP280;56612;52.030;113.524;2022-10-01T08:51:26;93159.75;;;7.55
69420;BMP280;56612;52.030;113.524;2022-10-01T08:54:59;93158.03;;;7.66
69420;BMP280;56612;52.030;113.524;2022-10-01T08:58:09;93163.56;;;7.74
69420;BMP280;56612;52.030;113.524;2022-10-01T09:01:13;93158.00;;;7.64
69420;BMP280;56612;52.030;113.524;2022-10-01T09:04:16;93171.66;;;7.78
69420;BMP280;56612;52.030;113.524;2022-10-01T09:07:44;93170.59;;;7.63
69420;BMP280;56612;52.030;113.524;2022-10-01T09:10:55;93194.59;;;7.66
69420;BMP280;56612;52.030;113.524;2022-10-01T09:20:48;93197.13;;;7.38
69420;BMP280;56612;52.030;113.524;2022-10-01T09:24:02;93197.66;;;7.32
69420;BMP280;56612;52.030;113.524;2022-10-01T09:27:16;93198.28;;;7.30
69420;BMP280;56612;52.030;113.524;2022-10-01T09:30:22;93188.41;;;7.35
69420;BMP280;56612;52.030;113.524;2022-10-01T09:33:31;93185.28;;;7.41
69420;BMP280;56612;52.030;113.524;2022-10-01T09:36:55;93187.78;;;7.37
69420;BMP280;56612;52.030;113.524;2022-10-01T09:40:29;93193.78;;;7.13
69420;BMP280;56612;52.030;113.524;2022-10-01T09:43:38;93212.09;;;7.03
69420;BMP280;56612;52.030;113.524;2022-10-01T09:46:43;93208.31;;;7.10
69420;BMP280;56612;52.030;113.524;2022-10-01T09:49:48;93202.13;;;7.04
69420;BMP280;56612;52.030;113.524;2022-10-01T09:52:52;93212.19;;;7.07
69420;BMP280;56612;52.030;113.524;2022-10-01T09:56:02;93219.25;;;6.98
69420;BMP280;56612;52.030;113.524;2022-10-01T09:59:13;93207.78;;;6.92
69420;BMP280;56612;52.030;113.524;2022-10-01T10:02:35;93215.44;;;6.82
69420;BMP280;56612;52.030;113.524;2022-10-01T10:05:44;93211.78;;;6.93
69420;BMP280;56612;52.030;113.524;2022-10-01T10:08:53;93215.53;;;6.86
69420;BMP280;56612;52.030;113.524;2022-10-01T10:11:58;93222.13;;;6.63
69420;BMP280;56612;52.030;113.524;2022-10-01T10:15:08;93223.38;;;6.60
69420;BMP280;56612;52.030;113.524;2022-10-01T10:18:13;93239.63;;;6.70
69420;BMP280;56612;52.030;113.524;2022-10-01T10:21:28;93226.09;;;6.62
69420;BMP280;56612;52.030;113.524;2022-10-01T10:24:33;93237.81;;;6.55
69420;BMP280;56612;52.030;113.524;2022-10-01T10:27:37;93231.56;;;6.46
69420;BMP280;56612;52.030;113.524;2022-10-01T10:30:41;93245.44;;;6.45
69420;BMP280;56612;52.030;113.524;2022-10-01T10:33:51;93256.88;;;6.49
69420;BMP280;56612;52.030;113.524;2022-10-01T10:37:00;93266.41;;;6.56
69420;BMP280;56612;52.030;113.524;2022-10-01T10:40:06;93266.53;;;6.60
69420;BMP280;56612;52.030;113.524;2022-10-01T10:43:18;93270.00;;;6.65
69420;BMP280;56612;52.030;113.524;2022-10-01T10:46:33;93274.72;;;6.66
69420;BMP280;56612;52.030;113.524;2022-10-01T10:49:43;93278.50;;;6.61
69420;BMP280;56612;52.030;113.524;2022-10-01T10:52:47;93287.84;;;6.43
69420;BMP280;56612;52.030;113.524;2022-10-01T10:55:58;93285.75;;;6.39
69420;BMP280;56612;52.030;113.524;2022-10-01T10:59:06;93290.38;;;6.39
69420;BMP280;56612;52.030;113.524;2022-10-01T11:02:15;93291.47;;;6.31
69420;BMP280;56612;52.030;113.524;2022-10-01T11:05:26;93295.94;;;6.27
69420;BMP280;56612;52.030;113.524;2022-10-01T11:08:31;93298.16;;;6.34
69420;BMP280;56612;52.030;113.524;2022-10-01T11:14:58;93310.28;;;6.20
69420;BMP280;56612;52.030;113.524;2022-10-01T11:28:55;93354.66;;;5.99
69420;BMP280;56612;52.030;113.524;2022-10-01T11:32:09;93349.72;;;5.92
69420;BMP280;56612;52.030;113.524;2022-10-01T11:41:49;93362.88;;;5.52
69420;BMP280;56612;52.030;113.524;2022-10-01T11:45:01;93356.09;;;5.31
69420;BMP280;56612;52.030;113.524;2022-10-01T11:51:33;93352.72;;;5.31
69420;BMP280;56612;52.030;113.524;2022-10-01T11:58:17;93356.25;;;5.02
69420;BMP280;56612;52.030;113.524;2022-10-01T12:05:30;93369.66;;;5.06
69420;BMP280;56612;52.030;113.524;2022-10-01T12:08:35;93366.72;;;5.00
69420;BMP280;56612;52.030;113.524;2022-10-01T12:12:07;93371.66;;;4.90
69420;BMP280;56612;52.030;113.524;2022-10-01T12:24:55;93366.28;;;4.72
69420;BMP280;56612;52.030;113.524;2022-10-01T12:28:21;93366.09;;;4.84
69420;BMP280;56612;52.030;113.524;2022-10-01T12:32:07;93372.66;;;4.83
69420;BMP280;56612;52.030;113.524;2022-10-01T12:39:00;93363.09;;;4.75
69420;BMP280;56612;52.030;113.524;2022-10-01T12:42:31;93375.13;;;4.78
69420;BMP280;56612;52.030;113.524;2022-10-01T12:56:07;93381.22;;;4.65
69420;BMP280;56612;52.030;113.524;2022-10-01T13:00:22;93381.47;;;4.56
69420;BMP280;56612;52.030;113.524;2022-10-01T13:09:24;93383.34;;;4.53
69420;BMP280;56612;52.030;113.524;2022-10-01T13:13:00;93385.03;;;4.46
69420;BMP280;56612;52.030;113.524;2022-10-01T13:16:29;93379.84;;;4.48
69420;BMP280;56612;52.030;113.524;2022-10-01T13:23:04;93395.13;;;4.50
69420;BMP280;56612;52.030;113.524;2022-10-01T13:26:42;93397.84;;;4.52
69420;BMP280;56612;52.030;113.524;2022-10-01T13:29:57;93407.69;;;4.50
69420;BMP280;56612;52.030;113.524;2022-10-01T13:33:01;93406.53;;;4.39
69420;BMP280;56612;52.030;113.524;2022-10-01T13:36:08;93408.16;;;4.30
69420;BMP280;56612;52.030;113.524;2022-10-01T13:39:22;93415.88;;;4.10
69420;BMP280;56612;52.030;113.524;2022-10-01T13:42:29;93411.94;;;3.82
69420;BMP280;56612;52.030;113.524;2022-10-01T13:48:46;93429.84;;;3.83
69420;BMP280;56612;52.030;113.524;2022-10-01T13:51:51;93429.66;;;3.79
69420;BMP280;56612;52.030;113.524;2022-10-01T13:54:57;93433.16;;;3.84
69420;BMP280;56612;52.030;113.524;2022-10-01T13:58:06;93454.22;;;3.82
69420;BMP280;56612;52.030;113.524;2022-10-01T14:04:36;93447.88;;;3.87
69420;BMP280;56612;52.030;113.524;2022-10-01T14:07:42;93452.97;;;3.69
69420;BMP280;56612;52.030;113.524;2022-10-01T14:11:10;93454.25;;;3.68
69420;BMP280;56612;52.030;113.524;2022-10-01T14:14:40;93459.44;;;3.66
69420;BMP280;56612;52.030;113.524;2022-10-01T14:18:07;93455.72;;;3.58
69420;BMP280;56612;52.030;113.524;2022-10-01T14:28:30;93455.31;;;3.49
69420;BMP280;56612;52.030;113.524;2022-10-01T14:35:10;93460.63;;;3.36
69420;BMP280;56612;52.030;113.524;2022-10-01T14:38:22;93453.75;;;3.31
69420;BMP280;56612;52.030;113.524;2022-10-01T14:41:25;93456.50;;;3.33
69420;BMP280;56612;52.030;113.524;2022-10-01T14:44:36;93464.63;;;3.37
69420;BMP280;56612;52.030;113.524;2022-10-01T14:47:40;93476.47;;;3.36
69420;BMP280;56612;52.030;113.524;2022-10-01T14:50:48;93468.44;;;3.34
69420;BMP280;56612;52.030;113.524;2022-10-01T14:53:54;93481.25;;;3.25
69420;BMP280;56612;52.030;113.524;2022-10-01T14:57:00;93483.88;;;3.25
69420;BMP280;56612;52.030;113.524;2022-10-01T15:00:18;93489.28;;;3.28
69420;BMP280;56612;52.030;113.524;2022-10-01T15:03:21;93483.22;;;3.25
69420;BMP280;56612;52.030;113.524;2022-10-01T15:06:26;93490.44;;;3.24
69420;BMP280;56612;52.030;113.524;2022-10-01T15:09:32;93498.66;;;3.17
69420;BMP280;56612;52.030;113.524;2022-10-01T15:12:39;93497.03;;;3.23
69420;BMP280;56612;52.030;113.524;2022-10-01T15:15:44;93501.78;;;3.13
69420;BMP280;56612;52.030;113.524;2022-10-01T15:18:54;93506.25;;;3.11
69420;BMP280;56612;52.030;113.524;2022-10-01T15:21:59;93508.81;;;3.09
69420;BMP280;56612;52.030;113.524;2022-10-01T15:25:04;93496.09;;;3.05
69420;BMP280;56612;52.030;113.524;2022-10-01T15:28:15;93509.88;;;3.04
69420;BMP280;56612;52.030;113.524;2022-10-01T15:31:20;93498.69;;;2.91
69420;BMP280;56612;52.030;113.524;2022-10-01T15:34:25;93502.63;;;3.04
69420;BMP280;56612;52.030;113.524;2022-10-01T15:37:33;93494.28;;;2.96
69420;BMP280;56612;52.030;113.524;2022-10-01T15:40:37;93509.63;;;2.86
69420;BMP280;56612;52.030;113.524;2022-10-01T15:43:44;93509.47;;;2.70
69420;BMP280;56612;52.030;113.524;2022-10-01T15:46:47;93507.00;;;2.60
69420;BMP280;56612;52.030;113.524;2022-10-01T15:53:19;93512.16;;;2.58
69420;BMP280;56612;52.030;113.524;2022-10-01T15:56:24;93510.53;;;2.65
69420;BMP280;56612;52.030;113.524;2022-10-01T15:59:28;93513.13;;;2.51
69420;BMP280;56612;52.030;113.524;2022-10-01T16:02:33;93528.72;;;2.47
69420;BMP280;56612;52.030;113.524;2022-10-01T16:05:44;93519.78;;;2.52
69420;BMP280;56612;52.030;113.524;2022-10-01T16:12:20;93526.50;;;2.30
69420;BMP280;56612;52.030;113.524;2022-10-01T16:15:29;93522.84;;;2.23
69420;BMP280;56612;52.030;113.524;2022-10-01T16:18:32;93531.09;;;2.18
69420;BMP280;56612;52.030;113.524;2022-10-01T16:21:39;93536.63;;;2.10
69420;BMP280;56612;52.030;113.524;2022-10-01T16:24:47;93540.97;;;2.05
69420;BMP280;56612;52.030;113.524;2022-10-01T16:31:06;93546.59;;;1.88
69420;BMP280;56612;52.030;113.524;2022-10-01T16:34:12;93548.09;;;1.91
69420;BMP280;56612;52.030;113.524;2022-10-01T16:37:16;93552.91;;;1.83
69420;BMP280;56612;52.030;113.524;2022-10-01T16:40:22;93555.56;;;1.83
69420;BMP280;56612;52.030;113.524;2022-10-01T16:43:27;93556.72;;;1.80
69420;BMP280;56612;52.030;113.524;2022-10-01T16:46:30;93557.03;;;1.74
69420;BMP280;56612;52.030;113.524;2022-10-01T16:49:35;93560.03;;;1.69
69420;BMP280;56612;52.030;113.524;2022-10-01T16:52:39;93564.25;;;1.62
69420;BMP280;56612;52.030;113.524;2022-10-01T16:55:44;93572.72;;;1.61
69420;BMP280;56612;52.030;113.524;2022-10-01T16:58:47;93576.84;;;1.52
69420;BMP280;56612;52.030;113.524;2022-10-01T17:01:53;93583.25;;;1.61
69420;BMP280;56612;52.030;113.524;2022-10-01T17:04:58;93588.63;;;1.51
69420;BMP280;56612;52.030;113.524;2022-10-01T17:08:04;93589.19;;;1.50
69420;BMP280;56612;52.030;113.524;2022-10-01T17:11:13;93590.66;;;1.41
69420;BMP280;56612;52.030;113.524;2022-10-01T17:14:17;93601.88;;;1.41
69420;BMP280;56612;52.030;113.524;2022-10-01T17:17:22;93599.94;;;1.30
69420;BMP280;56612;52.030;113.524;2022-10-01T17:20:28;93599.03;;;1.26
69420;BMP280;56612;52.030;113.524;2022-10-01T17:23:32;93609.56;;;1.26
69420;BMP280;56612;52.030;113.524;2022-10-01T17:26:39;93612.88;;;1.26
69420;BMP280;56612;52.030;113.524;2022-10-01T17:29:43;93615.25;;;1.22
69420;BMP280;56612;52.030;113.524;2022-10-01T17:32:47;93609.19;;;1.20
69420;BMP280;56612;52.030;113.524;2022-10-01T17:35:50;93626.31;;;1.09
69420;BMP280;56612;52.030;113.524;2022-10-01T17:38:57;93617.59;;;1.06
69420;BMP280;56612;52.030;113.524;2022-10-01T17:42:00;93625.00;;;0.98
69420;BMP280;56612;52.030;113.524;2022-10-01T17:45:06;93625.50;;;1.06
69420;BMP280;56612;52.030;113.524;2022-10-01T17:48:10;93626.75;;;1.05
69420;BMP280;56612;52.030;113.524;2022-10-01T17:51:14;93635.63;;;1.00
69420;BMP280;56612;52.030;113.524;2022-10-01T17:54:19;93651.75;;;0.95
69420;BMP280;56612;52.030;113.524;2022-10-01T17:57:23;93649.66;;;0.93
69420;BMP280;56612;52.030;113.524;2022-10-01T18:00:27;93643.88;;;0.95
69420;BMP280;56612;52.030;113.524;2022-10-01T18:03:31;93640.47;;;0.82
69420;BMP280;56612;52.030;113.524;2022-10-01T18:06:34;93643.72;;;0.93
69420;BMP280;56612;52.030;113.524;2022-10-01T18:09:39;93651.56;;;0.81
69420;BMP280;56612;52.030;113.524;2022-10-01T18:12:44;93638.59;;;0.73
69420;BMP280;56612;52.030;113.524;2022-10-01T18:16:01;93651.75;;;0.73
69420;BMP280;56612;52.030;113.524;2022-10-01T18:19:05;93648.00;;;0.76
69420;BMP280;56612;52.030;113.524;2022-10-01T18:22:28;93656.19;;;0.92
69420;BMP280;56612;52.030;113.524;2022-10-01T18:25:32;93658.88;;;0.82
69420;BMP280;56612;52.030;113.524;2022-10-01T18:28:37;93665.03;;;0.75
69420;BMP280;56612;52.030;113.524;2022-10-01T18:31:41;93663.94;;;0.69
69420;BMP280;56612;52.030;113.524;2022-10-01T18:34:58;93658.69;;;0.69
69420;BMP280;56612;52.030;113.524;2022-10-01T18:38:27;93666.97;;;0.75
69420;BMP280;56612;52.030;113.524;2022-10-01T18:41:37;93669.53;;;0.63
69420;BMP280;56612;52.030;113.524;2022-10-01T18:44:41;93675.78;;;0.58
69420;BMP280;56612;52.030;113.524;2022-10-01T18:48:01;93673.94;;;0.61
69420;BMP280;56612;52.030;113.524;2022-10-01T19:19:07;93690.91;;;0.48
69420;BMP280;56612;52.030;113.524;2022-10-01T19:25:56;93676.25;;;0.45
69420;BMP280;56612;52.030;113.524;2022-10-01T19:35:51;93685.44;;;0.34
69420;BMP280;56612;52.030;113.524;2022-10-01T19:38:59;93680.75;;;0.33
69420;BMP280;56612;52.030;113.524;2022-10-01T19:42:28;93679.44;;;0.43
69420;BMP280;56612;52.030;113.524;2022-10-01T19:45:41;93687.34;;;0.43
69420;BMP280;56612;52.030;113.524;2022-10-01T19:52:13;93681.56;;;0.35
69420;BMP280;56612;52.030;113.524;2022-10-01T19:55:22;93680.03;;;0.42
69420;BMP280;56612;52.030;113.524;2022-10-01T19:58:26;93675.38;;;0.31
69420;BMP280;56612;52.030;113.524;2022-10-01T20:01:40;93683.13;;;0.28
69420;BMP280;56612;52.030;113.524;2022-10-01T20:05:08;93677.63;;;0.24
69420;BMP280;56612;52.030;113.524;2022-10-01T20:11:29;93684.13;;;0.23
69420;BMP280;56612;52.030;113.524;2022-10-01T20:15:05;93693.38;;;0.24
69420;BMP280;56612;52.030;113.524;2022-10-01T20:22:18;93697.41;;;0.16
69420;BMP280;56612;52.030;113.524;2022-10-01T20:25:42;93684.13;;;0.23
69420;BMP280;56612;52.030;113.524;2022-10-01T20:29:23;93696.44;;;0.21
69420;BMP280;56612;52.030;113.524;2022-10-01T20:32:40;93694.44;;;0.31
69420;BMP280;56612;52.030;113.524;2022-10-01T20:36:03;93693.09;;;0.20